Time;durP1;ratioP1;P1;durP2;ratioP2;P2;SDS_P1;SDS_P2;PMS_P1;PMS_P2;Temp;Humidity;BMP_temperature;BMP_pressure;BME280_temperature;BME280_humidity;BME280_pressure;Samples;Min_cycle;Max_cycle;Signal;HPM_P1;HPM_P2
2023/08/11 00:00:55;;;;;;;2.23;2.10;;;19.40;99.90;;;19.82;71.38;101070.75;5027324;28;20632;-66
2023/08/11 00:03:22;;;;;;;2.30;2.20;;;19.40;99.90;;;19.83;71.35;101072.38;5028692;28;21223;-66
2023/08/11 00:05:49;;;;;;;2.20;2.10;;;19.40;99.90;;;19.81;71.82;101072.56;5021792;28;20672;-63
2023/08/11 00:08:16;;;;;;;2.17;2.07;;;19.40;99.90;;;19.82;71.47;101076.03;5019183;28;20756;-66
2023/08/11 00:10:43;;;;;;;2.67;2.20;;;19.40;99.90;;;19.80;72.09;101073.56;5016950;28;20675;-65
2023/08/11 00:13:12;;;;;;;8.43;2.60;;;19.40;99.90;;;19.76;72.39;101080.13;5025890;28;20692;-66
2023/08/11 00:15:40;;;;;;;2.70;2.40;;;19.30;99.90;;;19.74;72.18;101079.47;5024729;28;20709;-66
2023/08/11 00:18:10;;;;;;;2.97;2.37;;;19.30;99.90;;;19.71;72.57;101079.81;5019429;28;21310;-66
2023/08/11 00:20:38;;;;;;;5.33;2.10;;;19.30;99.90;;;19.68;72.85;101076.63;5021400;28;20629;-65
2023/08/11 00:23:05;;;;;;;3.80;2.33;;;19.30;99.90;;;19.67;72.96;101081.09;5029002;28;20655;-66
2023/08/11 00:25:32;;;;;;;2.40;2.17;;;19.20;99.90;;;19.67;73.10;101091.69;5015871;28;20731;-66
2023/08/11 00:28:00;;;;;;;4.23;2.70;;;19.20;99.90;;;19.70;72.72;101094.00;5020968;28;20645;-65
2023/08/11 00:30:27;;;;;;;2.87;2.50;;;19.20;99.90;;;19.70;72.02;101091.38;5029242;28;20620;-66
2023/08/11 00:32:54;;;;;;;2.50;2.30;;;19.20;99.90;;;19.70;72.01;101093.22;5019955;28;21009;-65
2023/08/11 00:35:22;;;;;;;7.43;2.80;;;19.20;99.90;;;19.68;71.97;101100.44;5028005;28;20686;-65
2023/08/11 00:37:50;;;;;;;2.70;2.50;;;19.20;99.90;;;19.68;71.40;101100.44;5028742;28;20653;-66
2023/08/11 00:40:17;;;;;;;3.07;2.10;;;19.20;99.90;;;19.64;71.33;101102.59;5021423;28;21059;-67
2023/08/11 00:42:44;;;;;;;2.27;2.17;;;19.20;99.90;;;19.60;71.08;101095.94;5025188;28;20733;-66
2023/08/11 00:45:11;;;;;;;2.70;2.50;;;19.20;99.90;;;19.62;71.12;101101.09;5024627;28;20722;-65
2023/08/11 00:47:43;;;;;;;2.43;2.23;;;19.20;99.90;;;19.59;70.90;101109.34;5028935;28;20658;-66
2023/08/11 00:50:12;;;;;;;2.50;2.30;;;19.20;99.90;;;19.58;70.65;101108.50;5026629;28;20686;-65
2023/08/11 00:52:39;;;;;;;2.50;2.30;;;19.10;99.90;;;19.58;70.70;101103.22;5018901;28;21190;-66
2023/08/11 00:55:10;;;;;;;6.10;2.27;;;19.10;99.90;;;19.57;70.37;101103.38;5033124;28;20636;-66
2023/08/11 00:57:37;;;;;;;2.67;2.50;;;19.10;99.90;;;19.58;70.57;101110.31;5017516;28;20726;-66
2023/08/11 01:00:12;;;;;;;2.67;2.37;;;19.10;99.90;;;19.57;70.38;101106.03;5028238;28;20700;-64
2023/08/11 01:02:42;;;;;;;2.90;2.30;;;19.10;99.90;;;19.55;70.71;101100.06;5020339;28;21303;-66
2023/08/11 01:05:15;;;;;;;2.20;2.10;;;19.10;99.90;;;19.55;70.84;101095.59;5022054;28;20670;-66
2023/08/11 01:08:12;;;;;;;2.20;2.00;;;19.10;99.90;;;19.50;70.80;101097.88;5028006;28;20716;-66
2023/08/11 01:11:17;;;;;;;1.70;1.60;;;19.10;99.90;;;19.46;71.04;101091.25;5040183;28;20690;-65
2023/08/11 01:13:53;;;;;;;2.17;2.07;;;19.00;99.90;;;19.37;71.31;101091.34;5030588;28;20822;-66
2023/08/11 01:16:23;;;;;;;2.07;1.90;;;19.00;99.90;;;19.33;71.66;101096.09;5044359;28;20671;-66
2023/08/11 01:18:51;;;;;;;2.53;2.40;;;18.90;99.90;;;19.28;71.64;101087.78;5029582;28;21221;-66
2023/08/11 01:21:19;;;;;;;2.70;2.00;;;18.90;99.90;;;19.28;71.67;101087.78;5024878;28;20699;-65
2023/08/11 01:23:46;;;;;;;2.37;2.27;;;18.90;99.90;;;19.22;72.12;101091.03;5024632;28;20635;-63
2023/08/11 01:26:13;;;;;;;2.50;2.10;;;18.90;99.90;;;19.19;72.28;101086.06;5017808;28;21113;-65
2023/08/11 01:28:41;;;;;;;2.60;2.40;;;18.80;99.90;;;19.15;72.83;101087.34;5023560;28;20695;-65
2023/08/11 01:31:08;;;;;;;2.37;2.17;;;18.80;99.90;;;19.12;73.08;101092.97;5028523;28;20652;-65
2023/08/11 01:33:35;;;;;;;2.00;1.90;;;18.70;99.90;;;19.09;73.20;101098.56;5014465;28;20632;-65
2023/08/11 01:36:03;;;;;;;2.43;2.00;;;18.70;99.90;;;19.04;73.29;101084.94;5020895;28;20635;-66
2023/08/11 01:38:30;;;;;;;2.63;2.43;;;18.60;99.90;;;19.03;73.62;101081.50;5031854;28;20698;-66
2023/08/11 01:40:58;;;;;;;2.07;1.97;;;18.70;99.90;;;19.02;73.29;101081.63;5014655;28;20658;-65
2023/08/11 01:43:27;;;;;;;3.70;2.50;;;18.60;99.90;;;19.02;73.54;101081.63;5014432;28;21076;-65
2023/08/11 01:45:54;;;;;;;2.30;2.20;;;18.60;99.90;;;18.99;73.59;101076.66;5013865;28;20893;-66
2023/08/11 01:48:21;;;;;;;2.13;2.03;;;18.60;99.90;;;18.98;74.14;101080.28;5015500;28;20747;-66
2023/08/11 01:50:48;;;;;;;1.90;1.80;;;18.50;99.90;;;18.97;73.73;101078.63;5018810;28;20721;-66
2023/08/11 01:53:15;;;;;;;2.30;2.10;;;18.60;99.90;;;18.96;73.74;101084.88;5024628;28;20723;-66
2023/08/11 01:55:44;;;;;;;2.27;2.17;;;18.60;99.90;;;18.98;73.86;101075.00;5023581;28;21468;-65
2023/08/11 01:58:11;;;;;;;2.83;2.30;;;18.60;99.90;;;18.98;74.09;101077.63;5024824;28;20676;-66
2023/08/11 02:00:38;;;;;;;2.10;1.90;;;18.50;99.90;;;18.97;74.27;101078.63;5022677;28;20664;-66
2023/08/11 02:03:05;;;;;;;1.83;1.73;;;18.50;99.90;;;18.89;74.66;101075.94;5031662;28;20675;-65
2023/08/11 02:05:33;;;;;;;2.67;2.50;;;18.50;99.90;;;18.86;74.78;101070.94;5024411;28;20649;-66
2023/08/11 02:08:01;;;;;;;2.73;2.53;;;18.50;99.90;;;18.81;75.04;101063.44;5025313;28;21465;-65
2023/08/11 02:10:28;;;;;;;2.07;1.97;;;18.40;99.90;;;18.78;75.26;101068.22;5018054;28;21133;-65
2023/08/11 02:12:55;;;;;;;2.33;2.00;;;18.40;99.90;;;18.74;75.26;101058.94;5030458;28;20671;-66
2023/08/11 02:15:22;;;;;;;4.00;2.27;;;18.30;99.90;;;18.73;75.63;101062.56;5026479;28;20705;-64
2023/08/11 02:17:49;;;;;;;2.03;1.93;;;18.30;99.90;;;18.70;76.01;101060.22;5023689;28;21298;-66
2023/08/11 02:20:21;;;;;;;1.70;1.60;;;18.30;99.90;;;18.64;76.13;101063.47;5031017;28;20628;-66
2023/08/11 02:22:50;;;;;;;2.37;2.20;;;18.20;99.90;;;18.64;76.72;101066.09;5030143;28;21079;-65
2023/08/11 02:25:17;;;;;;;2.57;2.37;;;18.20;99.90;;;18.62;76.63;101058.34;5012597;28;20659;-66
2023/08/11 02:27:44;;;;;;;2.37;2.17;;;18.20;99.90;;;18.62;76.78;101062.78;5027026;28;21623;-66
2023/08/11 02:30:12;;;;;;;1.97;1.87;;;18.20;99.90;;;18.61;77.06;101072.53;5030406;28;20711;-66
2023/08/11 02:32:41;;;;;;;2.53;2.30;;;18.20;99.90;;;18.57;77.20;101065.88;5027991;28;20747;-65
2023/08/11 02:35:10;;;;;;;2.63;2.43;;;18.20;99.90;;;18.49;77.52;101069.28;5022785;28;20676;-66
2023/08/11 02:37:38;;;;;;;2.60;2.40;;;18.10;99.90;;;18.44;77.81;101068.88;5020727;28;20750;-64
2023/08/11 02:40:09;;;;;;;2.17;2.07;;;18.00;99.90;;;18.42;77.79;101070.81;5015273;28;20636;-65
2023/08/11 02:42:45;;;;;;;2.47;2.27;;;18.00;99.90;;;18.40;77.85;101067.50;5025856;28;21001;-66
2023/08/11 02:45:12;;;;;;;2.63;2.43;;;18.00;99.90;;;18.39;77.92;101073.78;5026238;28;21177;-65
2023/08/11 02:47:40;;;;;;;2.80;2.60;;;18.00;99.90;;;18.36;77.91;101076.72;5019709;28;20763;-66
2023/08/11 02:50:08;;;;;;;2.70;2.53;;;18.00;99.90;;;18.34;77.37;101076.03;5026420;28;20629;-66
2023/08/11 02:52:36;;;;;;;2.70;2.50;;;17.90;99.90;;;18.34;77.35;101076.03;5024687;28;20633;-65
2023/08/11 02:55:05;;;;;;;2.73;2.53;;;17.90;99.90;;;18.35;76.85;101072.41;5015927;28;20664;-63
2023/08/11 02:57:33;;;;;;;2.83;2.53;;;18.00;99.90;;;18.34;76.58;101073.38;5016935;28;20656;-65
2023/08/11 03:00:01;;;;;;;4.77;2.80;;;17.90;99.90;;;18.33;76.56;101074.38;5019510;28;21300;-66
2023/08/11 03:02:28;;;;;;;4.97;2.90;;;17.90;99.90;;;18.33;76.17;101082.31;5045699;28;20711;-66
2023/08/11 03:04:55;;;;;;;3.23;2.57;;;17.90;99.90;;;18.32;75.93;101067.44;5027266;28;20643;-66
2023/08/11 03:07:22;;;;;;;3.67;2.63;;;17.90;99.90;;;18.31;76.09;101071.06;5021093;28;21105;-65
2023/08/11 03:09:49;;;;;;;2.37;2.20;;;17.90;99.90;;;18.27;76.00;101069.66;5026027;28;21169;-67
2023/08/11 03:12:16;;;;;;;3.80;2.70;;;17.90;99.90;;;18.29;75.76;101069.53;5017127;28;20637;-66
2023/08/11 03:14:43;;;;;;;3.07;2.87;;;17.90;99.90;;;18.26;75.56;101072.47;5027041;28;20656;-64
2023/08/11 03:17:13;;;;;;;2.90;2.70;;;17.90;99.90;;;18.23;75.80;101073.59;5030279;28;20621;-65
2023/08/11 03:19:40;;;;;;;2.63;2.43;;;17.80;99.90;;;18.25;75.90;101060.25;5020736;28;20660;-65
2023/08/11 03:22:07;;;;;;;2.83;2.63;;;17.80;99.90;;;18.23;76.02;101057.75;5030345;28;20616;-66
2023/08/11 03:24:34;;;;;;;2.70;2.50;;;17.90;99.90;;;18.19;76.26;101060.81;5021240;28;20648;-65
2023/08/11 03:27:01;;;;;;;2.00;1.90;;;17.80;99.90;;;18.20;76.25;101063.34;5026275;28;21262;-66
2023/08/11 03:29:28;;;;;;;2.90;2.70;;;17.80;99.90;;;18.21;76.12;101061.50;5028038;28;21280;-65
2023/08/11 03:31:55;;;;;;;3.40;2.70;;;17.80;99.90;;;18.20;76.58;101071.25;5021836;28;20633;-65
2023/08/11 03:34:22;;;;;;;2.60;2.50;;;17.80;99.90;;;18.21;76.37;101072.91;5025206;28;20645;-66
2023/08/11 03:36:49;;;;;;;2.37;2.17;;;17.80;99.90;;;18.19;76.36;101080.16;5023790;28;20720;-66
2023/08/11 03:39:16;;;;;;;3.80;3.13;;;17.80;99.90;;;18.13;76.55;101070.19;5026147;28;21255;-64
2023/08/11 03:41:43;;;;;;;2.57;2.37;;;17.80;99.90;;;18.06;76.88;101077.03;5007823;28;20735;-64
2023/08/11 03:44:10;;;;;;;3.07;2.83;;;17.70;99.90;;;18.04;77.12;101078.19;5025659;28;20744;-66
2023/08/11 03:46:36;;;;;;;2.53;2.40;;;17.70;99.90;;;17.97;77.41;101077.94;5028487;28;20756;-65
2023/08/11 03:49:06;;;;;;;2.80;2.60;;;17.60;99.90;;;17.95;77.36;101089.63;5022581;28;21226;-66
2023/08/11 03:51:33;;;;;;;3.83;3.17;;;17.60;99.90;;;17.92;77.20;101081.97;5040424;28;20628;-66
2023/08/11 03:54:02;;;;;;;3.23;2.93;;;17.60;99.90;;;17.91;77.32;101094.34;5018106;28;20638;-66
2023/08/11 03:56:30;;;;;;;2.60;2.40;;;17.60;99.90;;;17.90;76.65;101087.41;5014519;28;21064;-66
2023/08/11 03:58:56;;;;;;;3.10;2.83;;;17.50;99.90;;;17.91;76.65;101078.50;5018751;28;21137;-65
2023/08/11 04:01:23;;;;;;;3.07;2.67;;;17.50;99.90;;;17.89;76.80;101085.72;5024244;28;20672;-65
2023/08/11 04:03:51;;;;;;;3.40;3.10;;;17.50;99.90;;;17.90;76.69;101087.41;5023243;28;20632;-66
2023/08/11 04:06:18;;;;;;;4.83;3.33;;;17.60;99.90;;;17.91;76.53;101093.53;5025401;28;20671;-63
2023/08/11 04:08:44;;;;;;;3.93;2.80;;;17.50;99.90;;;17.90;76.55;101092.69;5024476;28;20648;-65
2023/08/11 04:11:11;;;;;;;2.90;2.70;;;17.50;99.90;;;17.89;76.62;101091.00;5022269;28;20694;-66
2023/08/11 04:13:39;;;;;;;2.50;2.27;;;17.50;99.90;;;17.89;76.76;101095.50;5018821;28;20672;-66
2023/08/11 04:16:06;;;;;;;3.53;2.90;;;17.50;99.90;;;17.90;76.66;101087.41;5027985;28;20978;-66
2023/08/11 04:18:32;;;;;;;2.67;2.47;;;17.50;99.90;;;17.93;76.20;101092.38;5023445;28;20660;-67
2023/08/11 04:20:59;;;;;;;2.80;2.60;;;17.50;99.90;;;17.96;76.15;101093.91;5021585;28;20636;-66
2023/08/11 04:23:26;;;;;;;2.50;2.30;;;17.60;99.90;;;17.98;75.87;101092.78;5026657;28;20698;-66
2023/08/11 04:25:53;;;;;;;2.83;2.63;;;17.60;99.90;;;17.98;75.97;101094.59;5028563;28;20628;-66
2023/08/11 04:28:21;;;;;;;2.70;2.50;;;17.60;99.90;;;18.01;75.74;101100.44;5025116;28;20680;-66
2023/08/11 04:30:49;;;;;;;3.73;3.10;;;17.60;99.90;;;18.04;75.52;101089.56;5025193;28;20699;-65
2023/08/11 04:33:15;;;;;;;2.60;2.40;;;17.70;99.90;;;18.09;75.67;101084.66;5025216;28;20631;-65
2023/08/11 04:35:42;;;;;;;3.23;2.97;;;17.70;99.90;;;18.18;75.28;101091.72;5029227;28;20632;-65
2023/08/11 04:38:09;;;;;;;3.70;2.93;;;17.80;99.90;;;18.30;74.75;101095.81;5019507;28;20660;-66
2023/08/11 04:40:37;;;;;;;3.33;3.00;;;17.90;99.90;;;18.41;74.34;101098.25;5021613;28;20641;-66
2023/08/11 04:43:04;;;;;;;4.87;3.10;;;18.00;99.90;;;18.58;73.86;101104.53;5026182;28;20663;-65
2023/08/11 04:45:31;;;;;;;3.53;3.13;;;18.10;99.90;;;18.74;73.09;101098.59;5028595;28;20636;-66
2023/08/11 04:47:58;;;;;;;3.67;3.37;;;18.30;99.90;;;18.89;72.53;101107.66;5021172;28;20764;-66
2023/08/11 04:50:25;;;;;;;3.33;3.03;;;18.40;99.90;;;19.00;72.12;101100.31;5022792;28;20647;-65
2023/08/11 04:52:52;;;;;;;2.80;2.60;;;18.60;99.90;;;19.13;71.57;101108.66;5027736;28;20642;-66
2023/08/11 04:55:19;;;;;;;3.33;3.03;;;18.70;99.90;;;19.27;71.29;101112.59;5042202;28;20648;-67
2023/08/11 04:57:46;;;;;;;2.87;2.67;;;18.80;99.90;;;19.48;70.43;101112.25;5010081;28;20673;-66
2023/08/11 05:00:16;;;;;;;2.93;2.60;;;19.00;99.90;;;19.66;69.71;101105.91;5023609;28;21296;-63
2023/08/11 05:02:46;;;;;;;3.60;3.30;;;19.20;99.90;;;19.86;69.04;101107.34;5025228;28;21250;-66
2023/08/11 05:05:13;;;;;;;4.60;3.27;;;19.40;99.90;;;20.01;68.09;101110.22;5024285;28;20628;-66
2023/08/11 05:07:41;;;;;;;3.23;2.73;;;19.60;99.90;;;20.19;67.75;101107.47;5031568;28;20694;-66
2023/08/11 05:10:08;;;;;;;5.33;3.00;;;19.80;99.90;;;20.29;66.86;101106.38;5024272;28;20631;-65
2023/08/11 05:12:36;;;;;;;3.47;3.13;;;19.90;99.90;;;20.31;66.77;101108.88;5030032;28;20624;-66
2023/08/11 05:15:03;;;;;;;3.33;2.93;;;19.90;99.90;;;20.40;66.84;101113.22;5028253;28;20636;-65
2023/08/11 05:17:31;;;;;;;4.97;2.73;;;20.00;99.90;;;20.59;66.67;101116.38;5026799;28;20628;-66
2023/08/11 05:19:58;;;;;;;2.60;2.50;;;20.10;99.90;;;20.73;66.21;101117.56;5032820;28;20630;-66
2023/08/11 05:22:25;;;;;;;3.70;2.40;;;20.30;99.90;;;20.83;65.91;101120.88;5017599;28;21250;-65
2023/08/11 05:24:52;;;;;;;2.60;2.40;;;20.40;99.90;;;20.99;65.81;101123.56;5029223;28;21209;-67
2023/08/11 05:27:19;;;;;;;2.27;2.17;;;20.60;99.90;;;21.19;65.18;101126.75;5029624;28;20683;-66
2023/08/11 05:29:48;;;;;;;5.50;3.37;;;20.80;99.90;;;21.46;64.14;101131.69;5032225;28;20619;-66
2023/08/11 05:32:15;;;;;;;3.40;3.10;;;21.00;99.90;;;21.72;63.28;101119.03;5029599;28;21076;-66
2023/08/11 05:34:42;;;;;;;3.73;2.73;;;21.30;99.90;;;21.99;62.04;101125.75;5014232;28;21061;-67
2023/08/11 05:37:09;;;;;;;2.90;2.70;;;21.50;99.90;;;22.30;60.98;101129.28;5018067;28;20727;-66
2023/08/11 05:39:38;;;;;;;3.83;3.03;;;21.70;99.90;;;22.58;59.94;101133.09;5014642;28;21117;-66
2023/08/11 05:42:07;;;;;;;3.20;3.00;;;22.00;99.90;;;22.89;59.61;101127.78;5017577;28;20632;-67
2023/08/11 05:44:34;;;;;;;3.53;3.23;;;22.30;99.90;;;23.21;58.72;101140.84;5015701;28;20632;-66
2023/08/11 05:47:01;;;;;;;3.43;2.83;;;22.60;99.90;;;23.51;57.57;101139.09;5017077;28;20739;-66
2023/08/11 05:49:29;;;;;;;7.40;3.60;;;22.90;99.90;;;23.85;57.25;101137.53;5016028;28;20707;-66
2023/08/11 05:51:55;;;;;;;3.60;3.20;;;23.20;99.90;;;24.19;56.27;101139.66;5021656;28;20640;-66
2023/08/11 05:54:22;;;;;;;3.67;3.23;;;23.60;99.90;;;24.51;55.74;101133.06;5030818;28;20724;-66
2023/08/11 05:56:52;;;;;;;3.27;2.90;;;23.90;99.90;;;24.97;54.67;101147.75;5028813;28;21196;-66
2023/08/11 05:59:21;;;;;;;5.40;3.47;;;24.30;99.90;;;25.38;53.18;101142.53;5020690;28;20664;-67
2023/08/11 06:01:48;;;;;;;4.10;3.67;;;24.70;99.90;;;25.79;51.67;101139.97;5043191;28;20675;-65
2023/08/11 06:04:15;;;;;;;3.10;2.90;;;25.10;99.90;;;26.13;51.12;101135.44;5022279;28;20636;-66
2023/08/11 06:06:42;;;;;;;4.57;3.37;;;25.50;99.90;;;26.55;49.99;101134.38;5016779;28;20681;-67
2023/08/11 06:09:09;;;;;;;4.00;3.40;;;25.90;99.90;;;26.79;49.16;101136.50;5029870;28;20654;-66
2023/08/11 06:11:36;;;;;;;5.93;3.43;;;26.10;99.90;;;27.15;48.11;101137.97;5021844;28;20687;-66
2023/08/11 06:14:04;;;;;;;6.17;3.23;;;26.50;99.90;;;27.65;47.10;101140.84;5027292;28;20694;-65
2023/08/11 06:16:31;;;;;;;3.53;3.20;;;27.00;99.90;;;27.97;46.59;101133.78;5019866;28;21198;-67
2023/08/11 06:18:58;;;;;;;2.60;2.40;;;27.40;99.70;;;28.30;45.65;101137.16;5028016;28;20648;-66
2023/08/11 06:21:25;;;;;;;2.90;2.70;;;27.80;98.80;;;28.65;45.63;101140.31;5029038;28;20640;-67
2023/08/11 06:23:52;;;;;;;5.20;3.20;;;28.10;98.10;;;29.11;44.63;101137.31;5045720;28;20732;-67
2023/08/11 06:26:19;;;;;;;3.20;2.90;;;28.60;97.20;;;29.69;43.72;101137.81;5020623;28;20772;-67
2023/08/11 06:28:46;;;;;;;4.23;3.93;;;29.10;96.40;;;30.12;42.58;101129.69;5025233;28;20763;-67
2023/08/11 06:31:13;;;;;;;10.23;6.53;;;29.60;95.60;;;30.74;41.61;101131.97;5019138;28;20613;-66
2023/08/11 06:33:40;;;;;;;10.37;6.63;;;30.10;94.20;;;31.20;40.52;101136.66;5023321;28;20758;-67
2023/08/11 06:36:07;;;;;;;9.03;6.50;;;30.70;92.90;;;31.68;40.04;101145.38;5020129;28;20625;-67
2023/08/11 06:38:35;;;;;;;9.83;4.70;;;31.10;91.60;;;32.26;39.10;101139.06;5031195;28;20705;-67
2023/08/11 06:41:02;;;;;;;5.17;4.60;;;31.70;90.50;;;32.94;38.12;101144.38;5016200;28;20641;-66
2023/08/11 06:43:29;;;;;;;15.83;9.90;;;32.30;88.20;;;33.41;36.17;101149.25;5019927;28;20744;-66
2023/08/11 06:45:56;;;;;;;11.90;6.40;;;32.90;83.10;;;33.71;35.44;101145.38;5026850;28;20640;-65
2023/08/11 06:48:28;;;;;;;7.07;5.00;;;33.10;80.40;;;33.91;35.85;101151.84;5025732;28;21268;-66
2023/08/11 06:50:56;;;;;;;4.47;4.07;;;33.30;78.80;;;34.18;34.98;101158.19;5012617;28;20641;-66
2023/08/11 06:53:24;;;;;;;5.93;4.10;;;33.60;77.40;;;34.64;34.22;101154.13;5010278;28;20636;-64
2023/08/11 06:55:51;;;;;;;3.30;2.93;;;33.90;75.30;;;34.74;34.24;101161.50;5026375;28;20624;-63
2023/08/11 06:58:18;;;;;;;4.30;3.30;;;34.10;73.40;;;34.28;34.39;101163.72;5013729;28;20687;-66
2023/08/11 07:00:45;;;;;;;3.93;3.60;;;33.90;71.70;;;34.11;34.53;101162.16;5008672;28;20645;-68
2023/08/11 07:03:12;;;;;;;4.30;3.93;;;33.80;71.50;;;34.12;35.00;101163.78;5011186;28;20667;-65
2023/08/11 07:05:39;;;;;;;3.50;3.20;;;33.80;71.70;;;34.62;33.58;101158.97;5018855;28;20624;-68
2023/08/11 07:08:06;;;;;;;3.57;3.27;;;34.10;70.70;;;35.13;33.32;101170.31;5026004;28;20802;-66
2023/08/11 07:10:33;;;;;;;3.90;3.60;;;34.60;69.60;;;35.53;32.84;101168.72;5026086;28;20632;-67
2023/08/11 07:13:00;;;;;;;3.40;2.80;;;35.00;68.50;;;35.65;32.10;101174.78;5018666;28;20664;-64
2023/08/11 07:15:27;;;;;;;3.80;3.50;;;35.20;67.10;;;35.59;32.72;101178.53;5023503;28;20636;-67
2023/08/11 07:17:54;;;;;;;3.63;3.30;;;35.30;66.70;;;35.45;32.66;101174.63;5029413;28;20751;-66
2023/08/11 07:20:21;;;;;;;6.80;4.93;;;35.20;66.30;;;35.48;32.74;101170.59;5015067;28;20649;-65
2023/08/11 07:22:48;;;;;;;8.47;5.30;;;35.20;66.00;;;35.68;32.73;101179.69;5026436;28;21224;-65
2023/08/11 07:25:15;;;;;;;8.80;5.77;;;35.30;65.90;;;36.15;32.31;101173.41;5026155;28;20739;-66
2023/08/11 07:27:41;;;;;;;5.10;4.60;;;35.70;65.00;;;36.42;31.14;101176.78;5026703;28;20767;-66
2023/08/11 07:30:09;;;;;;;5.20;4.60;;;36.10;63.70;;;36.52;31.06;101185.78;5024728;28;20635;-66
2023/08/11 07:32:36;;;;;;;5.60;4.70;;;36.20;62.70;;;36.80;31.22;101178.25;5017857;28;20632;-65
2023/08/11 07:35:05;;;;;;;5.00;4.50;;;36.40;62.50;;;36.91;30.89;101179.94;5014756;28;20744;-66
2023/08/11 07:37:32;;;;;;;8.40;4.23;;;36.70;61.40;;;37.12;30.30;101176.91;5028160;28;20644;-66
2023/08/11 07:39:59;;;;;;;4.07;3.70;;;36.80;60.90;;;37.15;30.01;101178.28;5017782;28;20641;-66
2023/08/11 07:42:26;;;;;;;5.17;4.70;;;37.00;60.10;;;37.25;29.86;101172.81;5023554;28;20725;-67
2023/08/11 07:44:53;;;;;;;4.70;4.30;;;37.10;59.70;;;37.63;30.17;101174.97;5023224;28;20694;-66
2023/08/11 07:47:20;;;;;;;5.00;4.20;;;37.40;59.60;;;38.11;29.44;101181.66;5028523;28;20767;-66
2023/08/11 07:49:46;;;;;;;5.30;4.70;;;37.80;58.70;;;38.70;28.37;101178.91;5025617;28;20731;-66
2023/08/11 07:52:13;;;;;;;5.03;4.60;;;38.40;57.90;;;39.06;27.95;101183.00;5030102;28;20644;-66
2023/08/11 07:54:40;;;;;;;5.57;4.87;;;38.80;57.00;;;39.08;28.08;101175.34;5024441;28;20740;-66
2023/08/11 07:57:08;;;;;;;4.40;3.97;;;39.00;56.40;;;38.99;27.84;101173.53;5024576;28;20671;-64
2023/08/11 07:59:35;;;;;;;4.90;4.40;;;39.00;55.80;;;38.54;27.91;101178.19;5022154;28;20648;-66
2023/08/11 08:02:03;;;;;;;4.97;4.57;;;38.80;55.00;;;38.61;28.30;101184.13;5018991;28;20986;-66
2023/08/11 08:04:31;;;;;;;4.50;4.10;;;38.80;55.40;;;38.91;26.80;101174.94;5023637;28;21054;-66
2023/08/11 08:06:58;;;;;;;5.10;4.70;;;39.00;53.90;;;39.04;26.80;101174.28;5020740;28;21301;-66
2023/08/11 08:09:25;;;;;;;4.27;3.97;;;39.20;53.40;;;39.41;26.28;101174.53;5024105;28;21271;-66
2023/08/11 08:11:52;;;;;;;3.20;3.00;;;39.60;52.70;;;39.81;26.17;101175.19;5023466;28;20704;-66
2023/08/11 08:14:19;;;;;;;4.50;4.20;;;39.90;52.30;;;40.37;25.80;101175.31;5020061;28;20645;-65
2023/08/11 08:16:46;;;;;;;3.80;3.50;;;40.30;52.10;;;40.92;24.99;101180.81;5027449;28;21153;-66
2023/08/11 08:19:18;;;;;;;3.60;3.40;;;40.90;51.30;;;41.16;24.61;101180.69;5023332;28;20737;-66
2023/08/11 08:21:46;;;;;;;3.63;3.43;;;41.20;50.20;;;41.44;24.15;101184.34;5029030;28;20620;-66
2023/08/11 08:24:16;;;;;;;3.37;3.17;;;41.50;49.90;;;41.40;24.68;101180.56;5021110;28;20636;-65
2023/08/11 08:26:44;;;;;;;4.77;3.80;;;41.50;49.60;;;41.26;24.21;101180.53;5028881;28;20686;-65
2023/08/11 08:29:11;;;;;;;3.70;3.50;;;41.40;49.20;;;40.99;24.91;101175.78;5022586;28;20676;-65
2023/08/11 08:31:37;;;;;;;3.70;3.50;;;41.30;49.10;;;40.89;24.58;101177.88;5024322;28;20633;-66
2023/08/11 08:34:05;;;;;;;4.13;3.73;;;41.10;49.10;;;41.12;24.30;101174.19;5018146;28;20660;-66
2023/08/11 08:36:32;;;;;;;4.70;4.30;;;41.20;49.00;;;41.27;24.56;101173.97;5011678;28;20682;-66
2023/08/11 08:38:59;;;;;;;5.50;5.10;;;41.40;48.70;;;41.37;24.68;101164.72;5035823;28;20676;-64
2023/08/11 08:41:29;;;;;;;5.20;4.77;;;41.50;48.90;;;41.85;24.39;101168.72;5027951;28;20616;-66
2023/08/11 08:43:56;;;;;;;4.70;3.60;;;41.90;48.70;;;42.32;23.79;101173.78;5023649;28;21335;-66
2023/08/11 08:46:28;;;;;;;4.70;4.40;;;42.40;48.20;;;42.66;23.55;101180.72;5028921;28;20636;-66
2023/08/11 08:49:07;;;;;;;5.93;5.53;;;42.70;47.60;;;42.93;23.16;101172.38;5028744;28;20678;-66
2023/08/11 08:51:35;;;;;;;4.77;4.47;;;43.00;47.30;;;43.00;23.12;101178.25;5024297;28;20667;-67
2023/08/11 08:54:02;;;;;;;4.20;3.83;;;43.10;47.10;;;42.97;23.25;101176.94;5036627;28;20648;-67
2023/08/11 08:56:29;;;;;;;4.63;4.33;;;43.10;47.00;;;43.29;22.67;101164.06;5016251;28;20648;-66
2023/08/11 08:58:56;;;;;;;5.83;5.07;;;43.30;46.70;;;43.22;22.87;101170.78;5029477;28;20746;-67
2023/08/11 09:01:25;;;;;;;5.57;5.17;;;43.30;46.80;;;42.87;23.18;101165.41;5026577;28;20646;-66
2023/08/11 09:03:52;;;;;;;7.10;5.93;;;42.90;47.00;;;42.41;23.79;101166.44;5018694;28;20733;-67
2023/08/11 09:06:20;;;;;;;7.97;7.27;;;42.30;47.30;;;41.47;24.66;101157.13;5028040;28;21224;-66
2023/08/11 09:08:47;;;;;;;6.83;6.07;;;41.30;48.00;;;40.31;25.97;101152.72;5036192;28;20681;-67
2023/08/11 09:11:14;;;;;;;7.40;5.87;;;40.20;49.10;;;39.46;27.17;101149.09;5023620;28;21124;-66
2023/08/11 09:13:47;;;;;;;6.30;5.70;;;39.10;50.30;;;38.48;28.51;101154.78;5015029;28;20641;-63
2023/08/11 09:16:14;;;;;;;6.90;5.93;;;38.10;51.50;;;37.53;29.39;101153.22;5019769;28;21198;-66
2023/08/11 09:18:43;;;;;;;8.00;5.93;;;37.20;52.30;;;36.59;30.16;101145.56;5026312;28;20748;-63
2023/08/11 09:21:11;;;;;;;6.20;5.60;;;36.20;53.40;;;35.78;31.60;101140.91;5012951;28;21213;-66
2023/08/11 09:23:38;;;;;;;6.30;5.47;;;35.40;54.10;;;34.88;32.66;101139.16;5027734;28;20698;-66
2023/08/11 09:26:05;;;;;;;9.53;5.60;;;34.50;55.10;;;34.10;33.69;101138.84;5019468;28;20653;-67
2023/08/11 09:28:32;;;;;;;6.10;5.20;;;33.70;55.80;;;33.44;35.26;101134.38;5028231;28;20710;-66
2023/08/11 09:30:59;;;;;;;7.83;5.53;;;33.00;57.10;;;33.05;35.49;101128.13;5021207;28;20638;-66
2023/08/11 09:33:28;;;;;;;6.93;5.30;;;32.60;58.30;;;32.59;36.25;101131.06;5026403;28;20736;-66
2023/08/11 09:35:55;;;;;;;7.23;5.90;;;32.10;58.90;;;32.30;36.83;101127.53;5017786;28;21285;-66
2023/08/11 09:38:25;;;;;;;5.93;4.50;;;31.80;59.40;;;31.96;37.20;101120.34;5021185;28;20652;-67
2023/08/11 09:40:51;;;;;;;7.60;4.80;;;31.50;60.00;;;31.70;38.06;101121.66;5023701;28;20636;-67
2023/08/11 09:43:18;;;;;;;4.70;4.13;;;31.20;60.70;;;31.49;38.27;101113.38;5027968;28;20678;-66
2023/08/11 09:45:45;;;;;;;6.67;5.17;;;31.00;61.10;;;31.24;38.98;101116.28;5027523;28;20676;-66
2023/08/11 09:48:12;;;;;;;4.70;3.70;;;30.70;61.80;;;30.99;39.27;101123.72;5031490;28;20668;-66
2023/08/11 09:50:40;;;;;;;4.20;3.80;;;30.40;62.60;;;30.84;39.42;101115.25;5023866;28;20740;-66
2023/08/11 09:53:08;;;;;;;4.50;3.10;;;30.20;62.90;;;30.66;39.34;101110.75;5030516;28;21445;-65
2023/08/11 09:55:38;;;;;;;2.67;2.47;;;30.00;62.50;;;30.40;38.15;101116.50;5013945;28;20736;-66
2023/08/11 09:58:06;;;;;;;1.90;1.80;;;29.80;61.30;;;30.29;38.44;101115.38;5013743;28;20696;-66
2023/08/11 10:00:33;;;;;;;3.43;2.90;;;29.70;61.50;;;30.22;39.26;101117.34;5026283;28;21466;-66
2023/08/11 10:03:10;;;;;;;2.50;2.30;;;29.60;62.10;;;30.11;39.61;101122.69;5018008;28;20648;-65
2023/08/11 10:05:42;;;;;;;3.03;2.83;;;29.50;62.90;;;30.02;39.36;101122.16;5015779;28;21271;-64
2023/08/11 10:08:19;;;;;;;3.03;2.83;;;29.50;62.50;;;30.22;39.48;101111.16;5013875;28;20669;-66
2023/08/11 10:10:46;;;;;;;3.67;2.83;;;29.70;62.40;;;30.77;38.54;101114.53;5014898;28;20988;-66
2023/08/11 10:13:22;;;;;;;2.93;2.63;;;30.30;61.50;;;31.51;37.39;101117.47;5017855;28;20687;-65
2023/08/11 10:15:51;;;;;;;2.10;2.00;;;31.20;60.40;;;32.27;35.67;101116.38;5021889;28;21221;-65